Time;durP1;ratioP1;P1;durP2;ratioP2;P2;SDS_P1;SDS_P2;PMS_P1;PMS_P2;Temp;Humidity;BMP_temperature;BMP_pressure;BME280_temperature;BME280_humidity;BME280_pressure;Samples;Min_cycle;Max_cycle;Signal;HPM_P1;HPM_P2
2022/11/25 00:01:10;;;;;;;2.03;1.35;;;;;;;;;;5102589;27;43482;-60
2022/11/25 00:03:39;;;;;;;1.67;1.30;;;;;;;;;;5101846;27;44050;-59
2022/11/25 00:06:14;;;;;;;2.17;1.60;;;;;;;;;;5102658;27;44078;-60
2022/11/25 00:08:43;;;;;;;3.20;1.40;;;;;;;;;;5103378;27;43364;-60
2022/11/25 00:11:11;;;;;;;3.17;1.52;;;;;;;;;;5102373;27;43501;-60
2022/11/25 00:13:39;;;;;;;2.15;1.30;;;;;;;;;;5102552;27;45042;-60
2022/11/25 00:16:08;;;;;;;2.47;1.70;;;;;;;;;;5102504;27;43908;-60
2022/11/25 00:18:37;;;;;;;3.00;1.50;;;;;;;;;;5099243;27;43438;-60
2022/11/25 00:21:08;;;;;;;2.92;1.60;;;;;;;;;;5101247;27;43462;-60
2022/11/25 00:23:37;;;;;;;2.17;1.35;;;;;;;;;;5102019;27;44759;-60
2022/11/25 00:26:07;;;;;;;2.25;1.30;;;;;;;;;;5101833;27;44045;-60
2022/11/25 00:28:35;;;;;;;2.53;1.50;;;;;;;;;;5102927;27;43416;-60
2022/11/25 00:31:06;;;;;;;1.73;1.33;;;;;;;;;;5084208;27;43433;-60
2022/11/25 00:33:34;;;;;;;2.13;1.70;;;;;;;;;;5100523;27;44874;-60
2022/11/25 00:36:02;;;;;;;2.22;1.30;;;;;;;;;;5100085;27;44996;-60
2022/11/25 00:38:30;;;;;;;1.65;1.30;;;;;;;;;;5101659;27;43456;-60
2022/11/25 00:46:31;;;;;;;1.95;1.33;;;;;;;;;;5082462;27;43494;-60
2022/11/25 00:48:59;;;;;;;2.05;1.60;;;;;;;;;;5080769;27;43462;-60
2022/11/25 00:51:26;;;;;;;2.45;1.60;;;;;;;;;;5102178;27;43455;-60
2022/11/25 00:53:54;;;;;;;2.88;1.60;;;;;;;;;;5080362;27;45134;-60
2022/11/25 00:56:25;;;;;;;;;;;;;;;;;;5101538;27;44410;-60
2022/11/25 00:58:53;;;;;;;2.25;1.48;;;;;;;;;;5101967;27;43396;-60
2022/11/25 01:01:21;;;;;;;1.65;1.30;;;;;;;;;;5100976;27;43623;-60
2022/11/25 01:03:50;;;;;;;1.77;1.30;;;;;;;;;;5098243;27;43740;-60
2022/11/25 01:06:17;;;;;;;2.67;1.50;;;;;;;;;;5104924;27;43864;-60
2022/11/25 01:08:45;;;;;;;1.92;1.30;;;;;;;;;;5105483;27;43383;-60
2022/11/25 01:11:14;;;;;;;2.15;1.48;;;;;;;;;;5083753;27;43560;-60
2022/11/25 01:13:42;;;;;;;2.03;1.50;;;;;;;;;;5080257;27;43818;-60
2022/11/25 01:16:14;;;;;;;2.72;1.40;;;;;;;;;;5105323;27;43419;-61
2022/11/25 01:18:42;;;;;;;1.40;1.30;;;;;;;;;;5084545;27;43407;-60
2022/11/25 01:21:14;;;;;;;2.80;1.50;;;;;;;;;;5083088;27;43459;-60
2022/11/25 01:23:45;;;;;;;1.83;1.33;;;;;;;;;;5086921;27;43788;-60
2022/11/25 01:26:14;;;;;;;2.30;1.33;;;;;;;;;;5086508;27;44041;-60
2022/11/25 01:28:43;;;;;;;1.50;1.38;;;;;;;;;;5105167;27;43396;-60
2022/11/25 01:31:16;;;;;;;2.30;1.60;;;;;;;;;;5076821;27;43434;-60
2022/11/25 01:33:45;;;;;;;2.03;1.40;;;;;;;;;;5105313;27;43816;-60
2022/11/25 01:36:17;;;;;;;1.48;1.20;;;;;;;;;;5082461;27;44299;-60
2022/11/25 01:38:45;;;;;;;2.53;1.65;;;;;;;;;;5105201;27;43391;-60
2022/11/25 01:41:13;;;;;;;2.28;1.48;;;;;;;;;;5092772;27;43989;-60
2022/11/25 01:43:41;;;;;;;2.38;1.40;;;;;;;;;;5104140;27;44089;-60
2022/11/25 01:46:30;;;;;;;3.05;1.20;;;;;;;;;;5101471;27;44014;-60
2022/11/25 01:49:03;;;;;;;1.60;1.20;;;;;;;;;;5081034;27;44181;-60
2022/11/25 01:51:39;;;;;;;2.55;1.30;;;;;;;;;;5086691;27;43430;-60
2022/11/25 01:54:08;;;;;;;1.73;1.20;;;;;;;;;;5079511;28;45154;-60
2022/11/25 01:56:39;;;;;;;2.70;1.33;;;;;;;;;;5101588;27;45415;-60
2022/11/25 01:59:07;;;;;;;2.17;1.27;;;;;;;;;;5083141;27;44142;-60
2022/11/25 02:01:35;;;;;;;1.58;1.48;;;;;;;;;;5086705;27;43512;-60
2022/11/25 02:04:03;;;;;;;2.45;1.42;;;;;;;;;;5101096;27;45306;-60
2022/11/25 02:06:34;;;;;;;2.17;1.45;;;;;;;;;;5085919;27;43792;-60
2022/11/25 02:09:04;;;;;;;1.65;1.30;;;;;;;;;;5105042;27;43378;-60
2022/11/25 02:11:33;;;;;;;2.23;1.40;;;;;;;;;;5082782;27;44041;-60
2022/11/25 02:14:02;;;;;;;2.42;1.42;;;;;;;;;;5081713;27;44031;-60
2022/11/25 02:16:30;;;;;;;2.38;1.50;;;;;;;;;;5103734;27;43410;-60
2022/11/25 02:18:58;;;;;;;1.45;1.35;;;;;;;;;;5104456;27;43380;-60
2022/11/25 02:21:47;;;;;;;1.95;1.45;;;;;;;;;;5081577;27;43485;-60
2022/11/25 02:24:20;;;;;;;2.42;1.25;;;;;;;;;;5101789;27;43919;-60
2022/11/25 02:26:48;;;;;;;2.40;1.55;;;;;;;;;;5085841;27;43443;-60
2022/11/25 02:29:15;;;;;;;2.05;1.30;;;;;;;;;;5082789;27;43427;-60
2022/11/25 02:31:43;;;;;;;3.80;1.60;;;;;;;;;;5082710;27;43653;-60
2022/11/25 02:34:12;;;;;;;2.33;1.40;;;;;;;;;;5103549;27;44059;-60
2022/11/25 02:36:40;;;;;;;1.70;1.40;;;;;;;;;;5104491;27;43443;-60
2022/11/25 02:43:08;;;;;;;2.92;1.60;;;;;;;;;;5094681;27;43551;-60
2022/11/25 02:45:43;;;;;;;3.15;1.50;;;;;;;;;;5103495;27;44689;-60
2022/11/25 02:48:10;;;;;;;1.40;1.10;;;;;;;;;;5100355;27;43991;-60
2022/11/25 02:50:38;;;;;;;2.00;1.40;;;;;;;;;;5104805;27;43531;-60
2022/11/25 02:53:07;;;;;;;1.50;1.40;;;;;;;;;;5081390;27;43455;-60
2022/11/25 02:55:36;;;;;;;3.65;1.58;;;;;;;;;;5085382;27;44409;-60
2022/11/25 02:58:05;;;;;;;3.20;1.35;;;;;;;;;;5091163;27;43497;-60
2022/11/25 03:00:34;;;;;;;2.88;1.55;;;;;;;;;;5104148;27;43361;-60
2022/11/25 03:03:02;;;;;;;2.25;1.42;;;;;;;;;;5082702;27;43475;-60
2022/11/25 03:05:30;;;;;;;2.13;1.23;;;;;;;;;;5096052;27;43806;-60
2022/11/25 03:07:59;;;;;;;2.08;1.40;;;;;;;;;;5085117;27;44278;-60
2022/11/25 03:10:28;;;;;;;1.63;1.35;;;;;;;;;;5078111;27;43428;-60
2022/11/25 03:12:58;;;;;;;2.83;1.30;;;;;;;;;;5082624;27;43494;-60
2022/11/25 03:15:26;;;;;;;2.17;1.23;;;;;;;;;;5081610;27;44690;-60
2022/11/25 03:17:53;;;;;;;1.92;1.30;;;;;;;;;;5085466;27;43537;-60
2022/11/25 03:20:22;;;;;;;1.52;1.10;;;;;;;;;;5084197;27;43376;-60
2022/11/25 03:22:50;;;;;;;2.50;1.40;;;;;;;;;;5103385;27;43650;-60
2022/11/25 03:25:18;;;;;;;2.00;1.40;;;;;;;;;;5101863;27;44787;-60
2022/11/25 03:27:49;;;;;;;2.50;1.55;;;;;;;;;;5084672;27;43473;-60
2022/11/25 03:30:18;;;;;;;1.50;1.20;;;;;;;;;;5082054;27;43497;-60
2022/11/25 03:32:47;;;;;;;2.00;1.27;;;;;;;;;;5075737;28;43587;-60
2022/11/25 03:35:15;;;;;;;2.40;1.30;;;;;;;;;;5083568;27;44045;-60
2022/11/25 03:37:44;;;;;;;2.92;1.42;;;;;;;;;;5084960;27;43495;-60
2022/11/25 03:40:13;;;;;;;1.88;1.35;;;;;;;;;;5091199;27;43482;-60
2022/11/25 03:42:41;;;;;;;2.58;1.50;;;;;;;;;;5081942;27;43869;-60
2022/11/25 03:45:11;;;;;;;2.92;1.58;;;;;;;;;;5084108;27;43758;-60
2022/11/25 03:47:40;;;;;;;1.75;1.38;;;;;;;;;;5084745;27;43774;-60
2022/11/25 03:50:08;;;;;;;1.60;1.30;;;;;;;;;;5081555;27;43457;-60
2022/11/25 03:52:36;;;;;;;1.33;1.23;;;;;;;;;;5082252;27;43495;-60
2022/11/25 03:55:05;;;;;;;2.55;1.90;;;;;;;;;;5084088;27;43759;-60
2022/11/25 03:57:35;;;;;;;1.50;1.23;;;;;;;;;;5084676;27;43494;-60
2022/11/25 04:00:03;;;;;;;3.08;1.50;;;;;;;;;;5081940;27;43542;-60
2022/11/25 04:02:44;;;;;;;2.65;1.30;;;;;;;;;;5102599;27;43408;-60
2022/11/25 04:05:14;;;;;;;2.10;1.45;;;;;;;;;;5083080;27;44175;-60
2022/11/25 04:07:42;;;;;;;1.50;1.30;;;;;;;;;;5081761;27;43986;-60
2022/11/25 04:10:11;;;;;;;2.53;1.52;;;;;;;;;;5084074;27;43482;-60
2022/11/25 04:12:47;;;;;;;1.85;1.17;;;;;;;;;;5081644;27;43437;-60
2022/11/25 04:15:19;;;;;;;1.75;1.65;;;;;;;;;;5082746;27;43886;-60
2022/11/25 04:17:52;;;;;;;1.85;1.35;;;;;;;;;;5102532;27;44331;-60
2022/11/25 04:20:20;;;;;;;2.67;1.50;;;;;;;;;;5079123;27;43410;-60
2022/11/25 04:22:55;;;;;;;4.10;1.40;;;;;;;;;;5084190;27;43490;-60
2022/11/25 04:25:23;;;;;;;2.08;1.25;;;;;;;;;;5075015;27;44611;-60
2022/11/25 04:27:51;;;;;;;2.50;1.65;;;;;;;;;;5081260;27;43416;-60
2022/11/25 04:30:26;;;;;;;1.67;1.38;;;;;;;;;;5077468;27;43521;-60
2022/11/25 04:32:54;;;;;;;2.35;1.73;;;;;;;;;;5078945;27;43645;-60
2022/11/25 04:35:22;;;;;;;1.60;1.27;;;;;;;;;;5083205;27;44091;-60
2022/11/25 04:37:53;;;;;;;1.25;1.15;;;;;;;;;;5085278;27;43506;-60
2022/11/25 04:40:22;;;;;;;1.50;1.40;;;;;;;;;;5087284;27;43429;-60
2022/11/25 04:42:59;;;;;;;2.55;1.40;;;;;;;;;;5085775;27;43408;-60
2022/11/25 04:45:39;;;;;;;2.47;1.67;;;;;;;;;;5105585;27;44017;-60
2022/11/25 04:48:28;;;;;;;1.92;1.33;;;;;;;;;;5086433;27;43678;-60
2022/11/25 04:50:56;;;;;;;2.03;1.40;;;;;;;;;;5087859;27;43422;-60
2022/11/25 04:53:25;;;;;;;1.35;1.20;;;;;;;;;;5083980;27;43609;-60
2022/11/25 04:55:54;;;;;;;2.20;1.50;;;;;;;;;;5080317;27;44199;-60
2022/11/25 05:01:08;;;;;;;2.25;1.40;;;;;;;;;;5084399;27;43425;-60
2022/11/25 05:03:40;;;;;;;1.48;1.20;;;;;;;;;;5084895;27;43999;-60
2022/11/25 05:06:17;;;;;;;2.10;1.30;;;;;;;;;;5086182;27;43861;-60
2022/11/25 05:08:48;;;;;;;1.33;1.20;;;;;;;;;;5105818;27;43444;-60
2022/11/25 05:11:16;;;;;;;2.47;1.50;;;;;;;;;;5079906;27;43450;-60
2022/11/25 05:13:44;;;;;;;2.17;1.70;;;;;;;;;;5086810;27;43522;-60
2022/11/25 05:16:12;;;;;;;1.77;1.50;;;;;;;;;;5104585;27;43813;-60
2022/11/25 05:18:40;;;;;;;1.58;1.30;;;;;;;;;;5086894;27;44008;-60
2022/11/25 05:21:08;;;;;;;1.77;1.27;;;;;;;;;;5081587;27;43524;-60
2022/11/25 05:23:40;;;;;;;1.50;1.40;;;;;;;;;;5087241;27;43386;-60
2022/11/25 05:26:08;;;;;;;1.70;1.20;;;;;;;;;;5086206;27;44078;-60
2022/11/25 05:28:40;;;;;;;1.50;1.17;;;;;;;;;;5063483;28;44994;-60
2022/11/25 05:31:09;;;;;;;2.42;1.45;;;;;;;;;;5082712;27;43490;-60
2022/11/25 05:33:37;;;;;;;2.42;1.40;;;;;;;;;;5083660;27;43550;-60
2022/11/25 05:36:07;;;;;;;1.65;1.40;;;;;;;;;;5083421;27;43784;-60
2022/11/25 05:38:44;;;;;;;2.45;1.55;;;;;;;;;;5081127;27;43505;-60
2022/11/25 05:41:17;;;;;;;1.30;1.10;;;;;;;;;;5085848;27;43413;-60
2022/11/25 05:43:46;;;;;;;1.73;1.40;;;;;;;;;;5086630;27;43544;-60
2022/11/25 05:46:14;;;;;;;1.95;1.40;;;;;;;;;;5086297;27;45099;-60
2022/11/25 05:48:47;;;;;;;1.40;1.30;;;;;;;;;;5082737;27;44047;-60
2022/11/25 05:51:15;;;;;;;1.30;1.20;;;;;;;;;;5085949;27;43402;-60
2022/11/25 05:53:43;;;;;;;1.70;1.40;;;;;;;;;;5086392;27;43517;-60
2022/11/25 05:56:11;;;;;;;2.22;1.30;;;;;;;;;;5082912;27;44029;-60
2022/11/25 05:59:05;;;;;;;1.45;1.35;;;;;;;;;;5057265;27;43508;-60
2022/11/25 06:01:44;;;;;;;1.98;1.65;;;;;;;;;;5082803;27;43439;-60
2022/11/25 06:04:12;;;;;;;1.52;1.30;;;;;;;;;;5077335;27;43614;-61
2022/11/25 06:06:40;;;;;;;1.60;1.30;;;;;;;;;;5076728;27;44929;-60
2022/11/25 06:09:07;;;;;;;1.58;1.30;;;;;;;;;;5102351;27;44023;-60
2022/11/25 06:11:36;;;;;;;1.80;1.27;;;;;;;;;;5081464;27;43402;-60
2022/11/25 06:14:05;;;;;;;2.25;1.40;;;;;;;;;;5083191;27;43467;-60
2022/11/25 06:16:33;;;;;;;1.98;1.40;;;;;;;;;;5076543;27;43951;-60
2022/11/25 06:19:23;;;;;;;1.60;1.35;;;;;;;;;;5069387;27;44489;-60
2022/11/25 06:21:51;;;;;;;1.45;1.35;;;;;;;;;;5079981;27;43415;-60
2022/11/25 06:24:19;;;;;;;1.60;1.40;;;;;;;;;;5078458;27;43451;-60
2022/11/25 06:26:52;;;;;;;1.65;1.27;;;;;;;;;;5082242;27;44305;-60
2022/11/25 06:29:19;;;;;;;1.52;1.17;;;;;;;;;;5100073;27;43464;-60
2022/11/25 06:31:49;;;;;;;2.95;1.35;;;;;;;;;;5082644;27;43461;-60
2022/11/25 06:34:36;;;;;;;2.03;1.42;;;;;;;;;;5078748;27;43410;-60
2022/11/25 06:37:06;;;;;;;1.58;1.23;;;;;;;;;;5080247;27;44060;-60
2022/11/25 06:39:34;;;;;;;1.27;1.17;;;;;;;;;;5102681;27;43398;-60
2022/11/25 06:42:02;;;;;;;1.98;1.35;;;;;;;;;;5099036;27;43482;-60
2022/11/25 06:44:29;;;;;;;1.80;1.33;;;;;;;;;;5099377;27;43462;-60
2022/11/25 06:46:57;;;;;;;2.40;1.60;;;;;;;;;;5098566;27;43729;-60
2022/11/25 06:49:25;;;;;;;2.03;1.30;;;;;;;;;;5096831;27;43480;-60
2022/11/25 06:51:53;;;;;;;2.22;1.38;;;;;;;;;;5097693;27;43507;-60
2022/11/25 06:54:21;;;;;;;1.85;1.45;;;;;;;;;;5100140;27;43502;-61
2022/11/25 06:56:52;;;;;;;2.42;1.35;;;;;;;;;;5100748;27;43836;-60
2022/11/25 06:59:19;;;;;;;;;;;;;;;;;;5099213;27;43419;-61
2022/11/25 07:01:47;;;;;;;1.85;1.20;;;;;;;;;;5095896;27;43530;-61
2022/11/25 07:04:15;;;;;;;1.98;1.55;;;;;;;;;;5105669;27;43604;-61
2022/11/25 07:06:43;;;;;;;2.78;1.40;;;;;;;;;;5099556;27;44031;-60
2022/11/25 07:09:11;;;;;;;2.15;1.40;;;;;;;;;;5098252;27;43697;-60
2022/11/25 07:11:39;;;;;;;1.65;1.20;;;;;;;;;;5097959;27;43372;-60
2022/11/25 07:14:10;;;;;;;1.95;1.50;;;;;;;;;;5102527;27;43613;-60
2022/11/25 07:16:38;;;;;;;2.05;1.30;;;;;;;;;;5099346;27;43893;-60
2022/11/25 07:19:06;;;;;;;2.65;1.40;;;;;;;;;;5097131;27;43405;-60
2022/11/25 07:21:35;;;;;;;1.85;1.42;;;;;;;;;;5098142;27;43383;-61
2022/11/25 07:24:04;;;;;;;1.73;1.23;;;;;;;;;;5101078;27;43565;-60
2022/11/25 07:26:37;;;;;;;1.25;1.10;;;;;;;;;;5098771;27;44984;-60
2022/11/25 07:29:06;;;;;;;2.08;1.20;;;;;;;;;;5101980;27;43472;-60
2022/11/25 07:31:54;;;;;;;2.25;1.20;;;;;;;;;;5094233;27;43477;-61
2022/11/25 07:34:22;;;;;;;2.17;1.50;;;;;;;;;;5092527;27;43419;-61
2022/11/25 07:36:50;;;;;;;3.58;1.52;;;;;;;;;;5098068;27;45063;-60
2022/11/25 07:39:19;;;;;;;1.40;1.20;;;;;;;;;;5105414;27;43434;-60
2022/11/25 07:41:51;;;;;;;2.35;1.35;;;;;;;;;;5099144;27;43466;-60
2022/11/25 07:44:19;;;;;;;1.65;1.10;;;;;;;;;;5099377;27;43818;-60
2022/11/25 07:46:52;;;;;;;3.15;1.42;;;;;;;;;;5083832;27;44017;-60
2022/11/25 07:49:24;;;;;;;2.67;1.48;;;;;;;;;;5095149;27;43502;-60
2022/11/25 07:51:53;;;;;;;1.83;1.20;;;;;;;;;;5072261;27;43436;-61
2022/11/25 07:54:22;;;;;;;1.75;1.20;;;;;;;;;;5096936;27;43457;-60
2022/11/25 07:56:50;;;;;;;1.83;1.33;;;;;;;;;;5091127;27;44872;-61
2022/11/25 07:59:19;;;;;;;2.05;1.30;;;;;;;;;;5100425;27;43718;-60
2022/11/25 08:01:51;;;;;;;2.20;1.38;;;;;;;;;;5098647;27;43425;-60
2022/11/25 08:04:19;;;;;;;1.88;1.42;;;;;;;;;;5099378;27;43580;-61
2022/11/25 08:06:48;;;;;;;1.50;1.10;;;;;;;;;;5098758;27;43917;-60
2022/11/25 08:09:18;;;;;;;2.13;1.40;;;;;;;;;;5094539;27;43656;-60
2022/11/25 08:11:46;;;;;;;5.32;1.73;;;;;;;;;;5100079;27;43421;-60
2022/11/25 08:14:14;;;;;;;2.30;1.50;;;;;;;;;;5096507;27;43423;-60
2022/11/25 08:16:42;;;;;;;2.33;1.60;;;;;;;;;;5098813;27;44931;-60
2022/11/25 08:19:12;;;;;;;3.03;1.42;;;;;;;;;;5096248;27;43813;-60
2022/11/25 08:21:40;;;;;;;2.28;1.30;;;;;;;;;;5091796;27;43504;-60
2022/11/25 08:24:12;;;;;;;2.33;1.75;;;;;;;;;;5099746;27;43593;-60
2022/11/25 08:26:40;;;;;;;2.05;1.27;;;;;;;;;;5082816;27;43763;-60
2022/11/25 08:29:08;;;;;;;2.05;1.30;;;;;;;;;;5074894;27;43634;-60
2022/11/25 08:31:37;;;;;;;1.63;1.35;;;;;;;;;;5097999;27;43523;-59
2022/11/25 08:34:06;;;;;;;1.92;1.20;;;;;;;;;;5095531;27;43601;-60
2022/11/25 08:36:35;;;;;;;2.72;1.38;;;;;;;;;;5076425;27;43787;-60
2022/11/25 08:39:06;;;;;;;2.17;1.30;;;;;;;;;;5099902;27;43411;-59
2022/11/25 08:41:54;;;;;;;2.80;1.40;;;;;;;;;;5098238;27;43414;-59
2022/11/25 08:44:22;;;;;;;3.28;1.42;;;;;;;;;;5098785;27;43511;-60
2022/11/25 08:46:49;;;;;;;2.58;1.27;;;;;;;;;;5110492;27;44799;-59
2022/11/25 08:49:18;;;;;;;2.38;1.50;;;;;;;;;;5104731;27;43497;-59
2022/11/25 08:51:46;;;;;;;2.63;1.52;;;;;;;;;;5106337;27;43425;-59
2022/11/25 08:54:14;;;;;;;2.60;1.50;;;;;;;;;;5107395;27;44011;-60
2022/11/25 08:56:42;;;;;;;1.45;1.35;;;;;;;;;;5102666;27;44797;-60
2022/11/25 08:59:10;;;;;;;1.55;1.30;;;;;;;;;;5104710;27;44019;-60
2022/11/25 09:01:38;;;;;;;2.47;1.35;;;;;;;;;;5114020;27;43384;-59
2022/11/25 09:04:06;;;;;;;2.38;1.35;;;;;;;;;;5104853;27;43439;-59
2022/11/25 09:06:34;;;;;;;4.13;1.50;;;;;;;;;;5102290;27;44040;-59
2022/11/25 09:09:04;;;;;;;1.65;1.38;;;;;;;;;;5113272;27;43968;-59
2022/11/25 09:11:32;;;;;;;3.67;1.23;;;;;;;;;;5102924;27;43521;-59
2022/11/25 09:14:00;;;;;;;2.97;1.30;;;;;;;;;;5107754;27;43526;-60
2022/11/25 09:16:28;;;;;;;4.25;1.27;;;;;;;;;;5104300;27;43791;-59
2022/11/25 09:18:56;;;;;;;1.90;1.30;;;;;;;;;;5097693;27;43951;-59
2022/11/25 09:21:24;;;;;;;3.45;1.38;;;;;;;;;;5106636;27;43535;-59
2022/11/25 09:23:53;;;;;;;2.83;1.20;;;;;;;;;;5106649;27;43974;-58
2022/11/25 09:26:23;;;;;;;1.92;1.17;;;;;;;;;;5107301;27;43783;-58
2022/11/25 09:28:51;;;;;;;2.17;0.95;;;;;;;;;;5109641;27;43954;-59
2022/11/25 09:31:19;;;;;;;2.53;1.20;;;;;;;;;;5111298;27;43402;-58
2022/11/25 09:33:47;;;;;;;2.35;1.50;;;;;;;;;;5105333;27;43485;-58
2022/11/25 09:36:16;;;;;;;2.20;1.00;;;;;;;;;;5112962;27;43780;-58
2022/11/25 09:38:44;;;;;;;1.95;1.25;;;;;;;;;;5105078;27;43450;-58
2022/11/25 09:47:37;;;;;;;2.22;1.25;;;;;;;;;;5097791;27;44042;-59
2022/11/25 09:50:34;;;;;;;3.45;1.40;;;;;;;;;;5062015;27;43458;-59
2022/11/25 09:53:24;;;;;;;2.72;1.40;;;;;;;;;;5106389;27;43445;-58
2022/11/25 09:55:54;;;;;;;1.67;1.30;;;;;;;;;;5105079;27;43589;-59
2022/11/25 09:58:31;;;;;;;3.42;1.20;;;;;;;;;;5103129;27;43659;-59
2022/11/25 10:00:59;;;;;;;3.22;1.63;;;;;;;;;;5104870;27;43775;-58
2022/11/25 10:03:45;;;;;;;3.10;1.17;;;;;;;;;;5108003;27;43470;-59
2022/11/25 10:06:15;;;;;;;3.17;1.45;;;;;;;;;;5108236;27;43481;-58
2022/11/25 10:08:56;;;;;;;1.50;1.20;;;;;;;;;;5111108;27;44554;-59
2022/11/25 10:11:42;;;;;;;2.58;1.42;;;;;;;;;;5108778;27;43910;-58
2022/11/25 10:14:10;;;;;;;1.27;1.05;;;;;;;;;;5097332;27;43525;-59
2022/11/25 10:16:38;;;;;;;2.25;1.23;;;;;;;;;;5106441;27;43518;-58
2022/11/25 10:19:13;;;;;;;3.20;1.17;;;;;;;;;;5108634;27;44039;-59
2022/11/25 10:21:41;;;;;;;2.90;1.17;;;;;;;;;;5110595;27;43973;-58
2022/11/25 10:24:13;;;;;;;4.60;1.50;;;;;;;;;;5110522;27;43418;-58
2022/11/25 10:26:42;;;;;;;2.00;1.00;;;;;;;;;;5108678;27;43496;-59
2022/11/25 10:29:13;;;;;;;2.78;1.10;;;;;;;;;;5085692;27;44679;-58
2022/11/25 10:31:42;;;;;;;2.35;1.23;;;;;;;;;;5115997;27;44017;-58
2022/11/25 10:34:20;;;;;;;2.63;1.20;;;;;;;;;;5103679;27;43489;-59
2022/11/25 10:36:49;;;;;;;2.53;1.10;;;;;;;;;;5104679;27;43522;-58
2022/11/25 10:39:23;;;;;;;2.28;0.90;;;;;;;;;;5104462;27;44848;-58
2022/11/25 10:41:51;;;;;;;1.58;1.15;;;;;;;;;;5110057;27;43341;-59
2022/11/25 10:44:32;;;;;;;2.13;1.13;;;;;;;;;;5104962;27;43470;-59
2022/11/25 10:47:03;;;;;;;3.35;1.65;;;;;;;;;;5106839;27;43565;-58
2022/11/25 10:49:40;;;;;;;1.90;1.10;;;;;;;;;;5083031;27;44980;-58
2022/11/25 10:52:10;;;;;;;2.13;1.33;;;;;;;;;;5088510;27;43622;-58
2022/11/25 10:54:38;;;;;;;2.17;1.13;;;;;;;;;;5084303;27;43536;-58
2022/11/25 10:57:20;;;;;;;3.15;1.13;;;;;;;;;;5086826;27;43574;-58
2022/11/25 10:59:56;;;;;;;1.88;0.90;;;;;;;;;;5080317;27;44711;-58
2022/11/25 11:02:27;;;;;;;3.15;1.70;;;;;;;;;;5082532;27;43801;-58
2022/11/25 11:05:02;;;;;;;3.53;1.33;;;;;;;;;;5086908;27;43515;-58
2022/11/25 11:07:33;;;;;;;2.85;1.30;;;;;;;;;;5083447;27;43523;-59
2022/11/25 11:10:14;;;;;;;3.47;1.27;;;;;;;;;;5064669;27;43831;-58
2022/11/25 11:13:01;;;;;;;2.05;1.27;;;;;;;;;;5068261;27;43501;-58
2022/11/25 11:15:31;;;;;;;1.30;0.95;;;;;;;;;;5080844;27;43484;-58
2022/11/25 11:18:00;;;;;;;2.55;1.30;;;;;;;;;;5051666;27;43431;-58
2022/11/25 11:20:30;;;;;;;2.60;1.10;;;;;;;;;;5087956;27;43866;-58
2022/11/25 11:23:04;;;;;;;1.83;1.13;;;;;;;;;;5084801;27;43445;-58
2022/11/25 11:25:37;;;;;;;3.08;1.15;;;;;;;;;;5087115;27;43470;-58
2022/11/25 11:28:23;;;;;;;1.15;0.90;;;;;;;;;;5068474;27;43507;-57
2022/11/25 11:30:59;;;;;;;2.28;1.30;;;;;;;;;;5082401;27;44060;-58
2022/11/25 11:33:29;;;;;;;2.33;0.90;;;;;;;;;;5086076;27;43538;-59
2022/11/25 11:36:16;;;;;;;1.58;1.00;;;;;;;;;;5068041;28;43538;-58
2022/11/25 11:38:50;;;;;;;2.38;1.20;;;;;;;;;;5080197;27;43613;-59
2022/11/25 11:41:24;;;;;;;2.17;1.30;;;;;;;;;;5088356;27;44027;-58
2022/11/25 11:43:55;;;;;;;2.15;1.20;;;;;;;;;;5080896;27;43966;-58
2022/11/25 11:46:23;;;;;;;;;;;;;;;;;;5078920;27;43533;-59
2022/11/25 11:48:57;;;;;;;2.20;1.30;;;;;;;;;;5091707;27;43673;-58
2022/11/25 11:51:25;;;;;;;1.92;1.10;;;;;;;;;;5107202;27;44025;-59
2022/11/25 11:53:59;;;;;;;3.00;1.30;;;;;;;;;;5077394;27;43458;-58
2022/11/25 11:56:38;;;;;;;2.50;1.10;;;;;;;;;;5080674;27;43436;-59
2022/11/25 11:59:11;;;;;;;2.00;1.30;;;;;;;;;;5103859;27;43646;-59
2022/11/25 12:01:47;;;;;;;2.90;1.30;;;;;;;;;;5098661;27;43794;-58
2022/11/25 12:04:29;;;;;;;1.58;1.15;;;;;;;;;;5101649;27;43489;-59
2022/11/25 12:07:16;;;;;;;2.95;1.30;;;;;;;;;;5081669;27;43437;-59
2022/11/25 12:10:04;;;;;;;2.67;1.40;;;;;;;;;;5103427;27;43443;-58
2022/11/25 12:12:40;;;;;;;2.88;1.30;;;;;;;;;;5102128;27;43882;-59
2022/11/25 12:15:22;;;;;;;2.38;1.30;;;;;;;;;;5108403;27;43459;-58
2022/11/25 12:17:55;;;;;;;2.72;1.30;;;;;;;;;;5108802;27;43396;-58
2022/11/25 12:20:42;;;;;;;3.85;1.23;;;;;;;;;;5103764;27;43562;-58
2022/11/25 12:23:18;;;;;;;2.83;1.60;;;;;;;;;;5104352;27;44037;-58
2022/11/25 12:25:48;;;;;;;3.00;1.40;;;;;;;;;;5104820;27;43449;-58
2022/11/25 12:28:23;;;;;;;2.83;1.60;;;;;;;;;;5105703;27;43400;-58
2022/11/25 12:31:17;;;;;;;2.05;1.45;;;;;;;;;;5102505;27;43490;-58
2022/11/25 12:34:04;;;;;;;1.52;1.33;;;;;;;;;;5095523;27;43787;-58
2022/11/25 12:36:39;;;;;;;3.10;1.40;;;;;;;;;;5103207;27;43522;-58
2022/11/25 12:39:07;;;;;;;2.88;1.40;;;;;;;;;;5104046;27;43471;-59
2022/11/25 12:41:39;;;;;;;1.55;1.38;;;;;;;;;;5106960;27;43482;-58
2022/11/25 12:44:14;;;;;;;3.08;1.45;;;;;;;;;;5110028;27;43803;-58
2022/11/25 12:46:49;;;;;;;3.28;1.45;;;;;;;;;;5107548;27;43486;-58
2022/11/25 12:49:24;;;;;;;2.15;1.33;;;;;;;;;;5113007;27;43430;-58
2022/11/25 12:52:07;;;;;;;2.55;1.50;;;;;;;;;;5098132;27;43450;-58
2022/11/25 12:54:44;;;;;;;3.03;1.83;;;;;;;;;;5097835;27;43781;-58
2022/11/25 12:57:18;;;;;;;2.80;1.80;;;;;;;;;;5106138;27;43408;-59
2022/11/25 12:59:49;;;;;;;2.58;1.75;;;;;;;;;;5102515;27;43550;-58
2022/11/25 13:02:23;;;;;;;3.17;1.88;;;;;;;;;;5105876;27;43469;-58
2022/11/25 13:04:50;;;;;;;2.88;1.70;;;;;;;;;;5108526;27;44056;-59
2022/11/25 13:07:24;;;;;;;3.67;1.90;;;;;;;;;;5112576;27;43500;-58
2022/11/25 13:09:51;;;;;;;3.03;1.75;;;;;;;;;;5115088;27;43490;-58
2022/11/25 13:12:31;;;;;;;3.05;1.80;;;;;;;;;;5107582;27;43555;-58
2022/11/25 13:15:18;;;;;;;3.60;1.90;;;;;;;;;;5111047;27;44749;-58
2022/11/25 13:17:48;;;;;;;2.78;1.73;;;;;;;;;;5111241;27;43987;-58
2022/11/25 13:20:21;;;;;;;3.45;2.10;;;;;;;;;;5104823;27;43453;-59
2022/11/25 13:23:06;;;;;;;2.67;1.98;;;;;;;;;;5109737;27;43474;-58
2022/11/25 13:25:35;;;;;;;2.95;1.80;;;;;;;;;;5102061;27;44256;-58
2022/11/25 13:28:23;;;;;;;2.55;1.80;;;;;;;;;;5109100;27;43512;-58
2022/11/25 13:30:52;;;;;;;4.00;2.35;;;;;;;;;;5107556;27;43459;-58
2022/11/25 13:33:23;;;;;;;4.22;2.08;;;;;;;;;;5110887;27;43439;-59
2022/11/25 13:35:54;;;;;;;3.70;1.95;;;;;;;;;;5103124;27;44033;-58
2022/11/25 13:38:37;;;;;;;3.08;2.17;;;;;;;;;;5109500;27;43403;-58
2022/11/25 13:41:11;;;;;;;3.97;1.90;;;;;;;;;;5101935;27;43442;-59
2022/11/25 13:43:52;;;;;;;3.00;2.00;;;;;;;;;;5110504;27;43518;-58
2022/11/25 13:46:32;;;;;;;4.88;2.30;;;;;;;;;;5107419;27;45096;-58
2022/11/25 13:49:00;;;;;;;4.10;1.85;;;;;;;;;;5110621;27;43496;-59
2022/11/25 13:51:28;;;;;;;2.10;1.80;;;;;;;;;;5105210;27;43559;-58
2022/11/25 13:53:58;;;;;;;3.28;2.25;;;;;;;;;;5106657;27;43663;-58
2022/11/25 13:56:31;;;;;;;3.93;2.30;;;;;;;;;;5108618;27;43816;-59
2022/11/25 13:59:15;;;;;;;3.75;2.25;;;;;;;;;;5112634;27;44253;-58
2022/11/25 14:01:54;;;;;;;3.42;1.92;;;;;;;;;;5106608;27;43558;-58
2022/11/25 14:04:54;;;;;;;4.47;2.13;;;;;;;;;;5114623;27;43569;-58
2022/11/25 14:07:34;;;;;;;4.47;2.10;;;;;;;;;;5052993;27;43900;-58
2022/11/25 14:10:11;;;;;;;3.58;2.00;;;;;;;;;;5103672;27;43413;-59
2022/11/25 14:12:48;;;;;;;4.20;2.30;;;;;;;;;;5103657;27;43399;-59
2022/11/25 14:15:19;;;;;;;3.00;2.03;;;;;;;;;;5106220;27;43475;-58
2022/11/25 14:17:59;;;;;;;3.28;1.75;;;;;;;;;;5112192;27;44064;-58
2022/11/25 14:20:42;;;;;;;3.58;2.00;;;;;;;;;;5089596;27;43564;-58
2022/11/25 14:23:19;;;;;;;3.08;1.90;;;;;;;;;;5105800;27;43381;-58
2022/11/25 14:25:49;;;;;;;4.40;2.00;;;;;;;;;;5102196;27;43545;-57
2022/11/25 14:28:23;;;;;;;4.40;1.90;;;;;;;;;;5102172;27;44075;-58
2022/11/25 14:30:53;;;;;;;4.97;2.33;;;;;;;;;;5100892;27;43466;-58
2022/11/25 14:33:25;;;;;;;3.70;1.95;;;;;;;;;;5103015;27;43475;-58
2022/11/25 14:35:55;;;;;;;4.10;2.20;;;;;;;;;;5102533;27;43489;-58
2022/11/25 14:38:25;;;;;;;3.35;2.00;;;;;;;;;;5101133;27;44962;-59
2022/11/25 14:40:57;;;;;;;3.85;2.08;;;;;;;;;;5100423;27;43552;-59
2022/11/25 14:43:26;;;;;;;3.33;1.88;;;;;;;;;;5109139;27;43487;-58
2022/11/25 14:46:09;;;;;;;4.32;2.17;;;;;;;;;;5108341;27;43403;-58
2022/11/25 14:48:37;;;;;;;3.38;1.90;;;;;;;;;;5114242;27;44851;-58
2022/11/25 14:51:12;;;;;;;3.58;2.20;;;;;;;;;;5114597;27;43466;-58
2022/11/25 14:53:47;;;;;;;3.72;2.22;;;;;;;;;;5112568;27;43473;-58
2022/11/25 14:56:21;;;;;;;3.58;2.00;;;;;;;;;;5109238;27;43537;-58
2022/11/25 14:58:51;;;;;;;2.47;1.77;;;;;;;;;;5109318;27;44053;-58
2022/11/25 15:01:20;;;;;;;3.13;2.15;;;;;;;;;;5109073;27;43424;-58
2022/11/25 15:03:49;;;;;;;3.28;1.90;;;;;;;;;;5101810;27;43708;-58
2022/11/25 15:06:19;;;;;;;4.00;1.98;;;;;;;;;;5104271;27;43521;-58
2022/11/25 15:08:54;;;;;;;4.57;2.30;;;;;;;;;;5116831;27;44759;-59
2022/11/25 15:11:23;;;;;;;2.53;1.67;;;;;;;;;;5109307;27;43475;-59
2022/11/25 15:13:54;;;;;;;3.65;1.85;;;;;;;;;;5109027;27;43409;-59
2022/11/25 15:16:24;;;;;;;3.63;2.15;;;;;;;;;;5110408;27;43433;-59
2022/11/25 15:18:56;;;;;;;3.28;2.00;;;;;;;;;;5102243;27;44222;-58
2022/11/25 15:21:28;;;;;;;5.32;2.20;;;;;;;;;;5110619;27;43969;-62
2022/11/25 15:23:57;;;;;;;4.95;1.98;;;;;;;;;;5105830;27;43487;-58
2022/11/25 15:26:26;;;;;;;3.60;1.70;;;;;;;;;;5109427;27;43446;-58
2022/11/25 15:28:58;;;;;;;4.60;1.92;;;;;;;;;;5109026;27;44985;-58